Time;durP1;ratioP1;P1;durP2;ratioP2;P2;SDS_P1;SDS_P2;PMS_P1;PMS_P2;Temp;Humidity;BMP_temperature;BMP_pressure;BME280_temperature;BME280_humidity;BME280_pressure;Samples;Min_cycle;Max_cycle;Signal;HPM_P1;HPM_P2
2023/01/30 00:02:28;;;;;;;33.53;23.43;;;-2.90;99.90;;;;;;5097222;28;20464;-77
2023/01/30 00:04:57;;;;;;;30.47;21.90;;;-2.90;99.90;;;;;;5113972;28;20479;-76
2023/01/30 00:07:25;;;;;;;33.33;23.97;;;-2.90;99.90;;;;;;5114230;28;20448;-78
2023/01/30 00:09:53;;;;;;;32.77;23.93;;;-2.90;99.90;;;;;;5101513;28;20461;-76
2023/01/30 00:12:21;;;;;;;33.90;23.33;;;-2.90;99.90;;;;;;5093439;28;20467;-78
2023/01/30 00:14:49;;;;;;;31.47;22.83;;;-3.00;99.90;;;;;;5093675;28;20957;-75
2023/01/30 00:17:17;;;;;;;33.13;23.17;;;-3.00;99.90;;;;;;5100698;28;20459;-76
2023/01/30 00:19:47;;;;;;;32.83;23.20;;;-3.00;99.90;;;;;;5113764;28;20444;-76
2023/01/30 00:22:15;;;;;;;31.17;21.83;;;-3.00;99.90;;;;;;5113468;28;20463;-77
2023/01/30 00:24:44;;;;;;;31.70;22.83;;;-3.10;99.90;;;;;;5112370;28;20522;-75
2023/01/30 00:27:12;;;;;;;34.33;23.00;;;-3.10;99.90;;;;;;5093334;28;20484;-76
2023/01/30 00:29:40;;;;;;;32.57;23.23;;;-3.10;99.90;;;;;;5093473;28;20437;-78
2023/01/30 00:32:11;;;;;;;35.20;23.50;;;-3.10;99.90;;;;;;5093261;28;20418;-77
2023/01/30 00:34:39;;;;;;;34.40;22.47;;;-3.20;99.90;;;;;;5093125;28;20452;-77
2023/01/30 00:37:09;;;;;;;33.47;23.10;;;-3.10;99.90;;;;;;5093294;28;20459;-75
2023/01/30 00:39:37;;;;;;;31.67;22.53;;;-3.10;99.90;;;;;;5093225;28;20461;-76
2023/01/30 00:47:37;;;;;;;36.53;24.23;;;-3.10;99.90;;;;;;5113554;28;20452;-76
2023/01/30 00:50:06;;;;;;;32.13;22.93;;;-3.20;99.90;;;;;;5112862;28;20543;-75
2023/01/30 00:52:35;;;;;;;33.83;24.47;;;-3.10;99.90;;;;;;5113123;28;20460;-76
2023/01/30 00:55:04;;;;;;;33.73;22.90;;;-3.10;99.90;;;;;;5113649;28;20549;-76
2023/01/30 00:57:32;;;;;;;33.13;23.93;;;-3.20;99.90;;;;;;5113464;28;20526;-78
2023/01/30 01:00:01;;;;;;;35.30;23.87;;;-3.20;99.90;;;;;;5112334;28;20456;-78
2023/01/30 01:02:29;;;;;;;34.67;23.63;;;-3.20;99.90;;;;;;5113662;28;20452;-76
2023/01/30 01:04:57;;;;;;;34.63;23.87;;;-3.20;99.90;;;;;;5113976;28;20486;-76
2023/01/30 01:07:25;;;;;;;33.23;24.33;;;-3.10;99.90;;;;;;5105774;28;20500;-76
2023/01/30 01:09:55;;;;;;;34.77;23.27;;;-3.10;99.90;;;;;;5095586;28;20433;-77
2023/01/30 01:12:23;;;;;;;35.33;23.27;;;-3.10;99.90;;;;;;5109128;28;20445;-77
2023/01/30 01:14:51;;;;;;;36.47;23.97;;;-3.10;99.90;;;;;;5105581;28;20462;-74
2023/01/30 01:17:19;;;;;;;35.77;23.93;;;-3.10;99.90;;;;;;5097363;28;20453;-76
2023/01/30 01:19:47;;;;;;;36.80;23.23;;;-3.10;99.90;;;;;;5093812;28;20478;-78
2023/01/30 01:22:15;;;;;;;35.13;23.23;;;-3.10;99.90;;;;;;5093406;28;20472;-78
2023/01/30 01:24:44;;;;;;;35.70;23.77;;;-2.00;99.90;;;;;;5093145;28;20481;-78
2023/01/30 01:27:13;;;;;;;34.73;23.63;;;-3.20;99.90;;;;;;5093178;28;20885;-77
2023/01/30 01:29:41;;;;;;;34.23;23.93;;;-3.20;99.90;;;;;;5092489;28;21102;-77
2023/01/30 01:32:14;;;;;;;37.20;24.50;;;-3.20;99.90;;;;;;5092269;28;20577;-77
2023/01/30 01:34:42;;;;;;;37.03;25.00;;;-3.20;99.90;;;;;;5091912;28;20951;-77
2023/01/30 01:37:11;;;;;;;39.70;25.37;;;-3.20;99.90;;;;;;5092341;28;20496;-78
2023/01/30 01:42:30;;;;;;;35.43;24.13;;;-3.20;99.90;;;;;;5091820;28;20966;-76
2023/01/30 01:45:03;;;;;;;36.27;24.77;;;-3.20;99.90;;;;;;5092004;28;20469;-77
2023/01/30 01:47:34;;;;;;;36.20;24.27;;;-3.20;99.90;;;;;;5092018;28;20544;-78
2023/01/30 01:50:05;;;;;;;35.33;23.47;;;-3.20;99.90;;;;;;5091622;28;20483;-77
2023/01/30 01:52:33;;;;;;;36.90;24.77;;;-3.20;99.90;;;;;;5091887;28;20441;-78
2023/01/30 01:55:04;;;;;;;36.87;24.40;;;-3.20;99.90;;;;;;5092417;28;20463;-76
2023/01/30 01:57:37;;;;;;;35.17;23.43;;;-3.20;99.90;;;;;;5091987;28;20468;-76
2023/01/30 02:00:10;;;;;;;34.93;24.27;;;-3.20;99.90;;;;;;5091818;28;20527;-77
2023/01/30 02:02:40;;;;;;;37.20;24.03;;;-3.20;99.90;;;;;;5091959;28;20478;-77
2023/01/30 02:05:11;;;;;;;36.97;24.83;;;-3.20;99.90;;;;;;5091871;28;20530;-78
2023/01/30 02:07:43;;;;;;;35.10;24.40;;;-3.20;99.90;;;;;;5091622;28;20456;-76
2023/01/30 02:10:17;;;;;;;36.57;24.67;;;-3.20;99.90;;;;;;5091747;28;20465;-76
2023/01/30 02:12:47;;;;;;;36.17;24.13;;;-3.20;99.90;;;;;;5091636;28;20464;-77
2023/01/30 02:15:18;;;;;;;36.90;24.93;;;-3.20;99.90;;;;;;5091754;28;20448;-76
2023/01/30 02:17:47;;;;;;;36.17;24.23;;;-3.20;99.90;;;;;;5091753;28;20548;-77
2023/01/30 02:20:26;;;;;;;37.53;24.70;;;-3.20;99.90;;;;;;5091704;28;20459;-77
2023/01/30 02:23:14;;;;;;;36.03;24.90;;;-3.20;99.90;;;;;;5091143;28;20452;-77
2023/01/30 02:26:13;;;;;;;37.27;25.10;;;-3.20;99.90;;;;;;5090899;28;20476;-76
2023/01/30 02:29:11;;;;;;;37.07;24.23;;;-3.30;99.90;;;;;;5091899;28;20522;-77
2023/01/30 02:31:45;;;;;;;36.90;24.67;;;-3.20;99.90;;;;;;5091557;28;20460;-77
2023/01/30 02:34:35;;;;;;;34.43;23.57;;;-3.20;99.90;;;;;;5091414;28;20461;-78
2023/01/30 02:37:14;;;;;;;36.70;24.80;;;-3.20;99.90;;;;;;5091344;28;20883;-76
2023/01/30 02:39:57;;;;;;;38.73;26.30;;;-3.20;99.90;;;;;;5091455;28;20501;-76
2023/01/30 02:42:34;;;;;;;37.30;24.60;;;-3.30;99.90;;;;;;5091289;28;20427;-78
2023/01/30 02:45:10;;;;;;;36.93;25.83;;;-3.20;99.90;;;;;;5091370;28;20476;-77
2023/01/30 02:47:44;;;;;;;35.80;24.77;;;-3.30;99.90;;;;;;5091556;28;20461;-77
2023/01/30 02:50:19;;;;;;;39.17;25.37;;;-3.30;99.90;;;;;;5091769;28;20451;-77
2023/01/30 02:52:48;;;;;;;40.50;25.77;;;-3.30;99.90;;;;;;5091158;28;20478;-77
2023/01/30 02:55:19;;;;;;;40.17;26.50;;;-3.20;99.90;;;;;;5091366;28;20878;-77
2023/01/30 02:57:47;;;;;;;38.93;25.40;;;-3.20;99.90;;;;;;5091417;28;20434;-77
2023/01/30 03:00:21;;;;;;;37.90;24.73;;;-3.20;99.90;;;;;;5111054;28;20517;-78
2023/01/30 03:03:18;;;;;;;37.03;25.87;;;-3.20;99.90;;;;;;5091383;28;20865;-77
2023/01/30 03:06:10;;;;;;;35.40;25.17;;;-3.20;99.90;;;;;;5096355;28;20472;-77
2023/01/30 03:08:49;;;;;;;38.93;25.70;;;-3.20;99.90;;;;;;5079380;28;20529;-79
2023/01/30 03:11:23;;;;;;;37.87;25.30;;;-3.20;99.90;;;;;;5079413;28;20545;-77
2023/01/30 03:13:55;;;;;;;40.40;25.57;;;-3.20;99.90;;;;;;5095062;28;20483;-77
2023/01/30 03:16:28;;;;;;;37.13;24.87;;;-3.20;99.90;;;;;;5094917;28;20483;-77
2023/01/30 03:19:00;;;;;;;40.17;25.63;;;-3.20;99.90;;;;;;5089994;28;20487;-79
2023/01/30 03:21:28;;;;;;;37.73;25.50;;;-3.20;99.90;;;;;;5115246;28;20535;-76
2023/01/30 03:23:57;;;;;;;38.07;25.63;;;-3.20;99.90;;;;;;5114876;28;20960;-76
2023/01/30 03:26:30;;;;;;;38.67;25.70;;;-3.20;99.90;;;;;;5114894;28;20479;-78
2023/01/30 03:28:58;;;;;;;40.57;27.20;;;-3.20;99.90;;;;;;5108445;28;20464;-78
2023/01/30 03:31:26;;;;;;;38.13;25.53;;;-3.20;99.90;;;;;;5094375;28;20456;-76
2023/01/30 03:33:55;;;;;;;39.53;26.50;;;-3.20;99.90;;;;;;5086015;28;20877;-76
2023/01/30 03:36:24;;;;;;;39.00;26.23;;;-3.20;99.90;;;;;;5094840;28;20543;-75
2023/01/30 03:38:52;;;;;;;39.40;26.10;;;-3.20;99.90;;;;;;5094837;28;20481;-75
2023/01/30 03:41:21;;;;;;;37.20;25.37;;;-3.20;99.90;;;;;;5094728;28;20461;-77
2023/01/30 03:43:48;;;;;;;37.07;25.47;;;-3.20;99.90;;;;;;5093958;28;20453;-77
2023/01/30 03:46:17;;;;;;;37.67;25.43;;;-3.20;99.90;;;;;;5093477;28;20573;-75
2023/01/30 03:48:45;;;;;;;39.23;27.03;;;-3.20;99.90;;;;;;5094428;28;20498;-77
2023/01/30 03:51:13;;;;;;;37.87;27.03;;;-3.20;99.90;;;;;;5094316;28;20452;-77
2023/01/30 03:53:42;;;;;;;43.70;28.57;;;-3.20;99.90;;;;;;5093193;28;20469;-78
2023/01/30 03:56:10;;;;;;;38.57;26.43;;;-3.20;99.90;;;;;;5093979;28;20541;-78
2023/01/30 03:58:39;;;;;;;36.93;25.90;;;-3.20;99.90;;;;;;5113294;28;20448;-76
2023/01/30 04:01:07;;;;;;;40.30;26.63;;;-3.20;99.90;;;;;;5114841;28;20506;-77
2023/01/30 04:03:35;;;;;;;39.53;26.60;;;-3.20;99.90;;;;;;5096491;28;20480;-78
2023/01/30 04:06:03;;;;;;;39.70;26.43;;;-3.20;99.90;;;;;;5094555;28;20485;-76
2023/01/30 04:08:31;;;;;;;37.40;25.27;;;-3.20;99.90;;;;;;5093895;28;20457;-78
2023/01/30 04:11:01;;;;;;;39.00;26.80;;;-3.10;99.90;;;;;;5093564;28;20507;-77
2023/01/30 04:13:29;;;;;;;39.10;26.00;;;-3.10;99.90;;;;;;5093444;28;20457;-76
2023/01/30 04:16:16;;;;;;;42.23;26.67;;;-3.10;99.90;;;;;;5092426;28;20449;-77
2023/01/30 04:18:44;;;;;;;40.80;26.40;;;-3.10;99.90;;;;;;5093797;28;20914;-76
2023/01/30 04:21:13;;;;;;;37.57;25.20;;;-3.10;99.90;;;;;;5093407;28;20525;-75
2023/01/30 04:23:42;;;;;;;36.83;25.70;;;-3.10;99.90;;;;;;5093122;28;20453;-77
2023/01/30 04:26:13;;;;;;;39.57;26.03;;;-3.10;99.90;;;;;;5093594;28;20538;-77
2023/01/30 04:28:41;;;;;;;39.50;26.03;;;-3.00;99.90;;;;;;5097731;28;20468;-77
2023/01/30 04:31:09;;;;;;;39.83;26.67;;;-3.00;99.90;;;;;;5113754;28;20990;-77
2023/01/30 04:33:39;;;;;;;40.03;26.70;;;-3.00;99.90;;;;;;5113499;28;20452;-77
2023/01/30 04:36:09;;;;;;;39.77;26.70;;;-3.00;99.90;;;;;;5114207;28;20526;-77
2023/01/30 04:38:38;;;;;;;38.60;24.90;;;-3.00;99.90;;;;;;5100143;28;20496;-77
2023/01/30 04:41:06;;;;;;;37.10;25.33;;;-2.90;99.90;;;;;;5093903;28;20475;-76
2023/01/30 04:43:35;;;;;;;38.27;25.77;;;-3.00;99.90;;;;;;5097732;28;20600;-76
2023/01/30 04:46:05;;;;;;;39.80;26.77;;;-2.90;99.90;;;;;;5104012;28;20483;-76
2023/01/30 04:48:33;;;;;;;37.97;26.03;;;-3.00;99.90;;;;;;5113347;28;20447;-80
2023/01/30 04:51:01;;;;;;;39.37;25.20;;;-3.00;99.90;;;;;;5113798;28;20452;-76
2023/01/30 04:53:29;;;;;;;36.93;24.50;;;-3.00;99.90;;;;;;5112395;28;20499;-76
2023/01/30 04:55:57;;;;;;;37.90;25.53;;;-3.00;99.90;;;;;;5113165;28;20447;-78
2023/01/30 04:58:25;;;;;;;38.67;25.60;;;-3.00;99.90;;;;;;5113513;28;20489;-76
2023/01/30 05:00:55;;;;;;;39.40;26.20;;;-3.00;99.90;;;;;;5112257;28;20547;-75
2023/01/30 05:03:23;;;;;;;40.00;24.97;;;-3.00;99.90;;;;;;5113643;28;20493;-75
2023/01/30 05:05:51;;;;;;;36.23;24.57;;;-3.00;99.90;;;;;;5113457;28;20448;-76
2023/01/30 05:08:19;;;;;;;38.37;25.33;;;-3.00;99.90;;;;;;5113578;28;20992;-76
2023/01/30 05:10:48;;;;;;;38.90;25.17;;;-3.00;99.90;;;;;;5097120;28;20468;-77
2023/01/30 05:13:16;;;;;;;35.77;25.10;;;-3.00;99.90;;;;;;5093028;28;20955;-77
2023/01/30 05:15:45;;;;;;;35.37;23.50;;;-3.10;99.90;;;;;;5092932;28;20460;-77
2023/01/30 05:18:14;;;;;;;36.37;24.83;;;-3.00;99.90;;;;;;5104890;28;20521;-76
2023/01/30 05:20:43;;;;;;;38.07;25.40;;;-3.10;99.90;;;;;;5113502;28;20914;-77
2023/01/30 05:23:11;;;;;;;34.67;24.27;;;-3.10;99.90;;;;;;5113061;28;20464;-77
2023/01/30 05:25:39;;;;;;;37.27;24.47;;;-3.10;99.90;;;;;;5113954;28;20448;-78
2023/01/30 05:28:07;;;;;;;37.30;25.13;;;-3.10;99.90;;;;;;5099892;28;20496;-78
2023/01/30 05:30:36;;;;;;;38.93;26.20;;;-3.10;99.90;;;;;;5096128;28;20864;-77
2023/01/30 05:33:04;;;;;;;36.70;25.50;;;-3.10;99.90;;;;;;5095040;28;20522;-75
2023/01/30 05:35:34;;;;;;;37.20;25.23;;;-3.10;99.90;;;;;;5095886;28;20461;-76
2023/01/30 05:38:02;;;;;;;36.57;23.97;;;-3.10;99.90;;;;;;5094406;28;20448;-78
2023/01/30 05:40:30;;;;;;;36.00;23.90;;;-3.10;99.90;;;;;;5101256;28;20464;-77
2023/01/30 05:42:58;;;;;;;34.77;24.27;;;-3.10;99.90;;;;;;5096596;28;20441;-78
2023/01/30 05:45:26;;;;;;;37.23;24.43;;;-3.10;99.90;;;;;;5093302;28;20453;-77
2023/01/30 05:47:55;;;;;;;35.57;24.27;;;-3.00;99.90;;;;;;5093402;28;20489;-77
2023/01/30 05:50:28;;;;;;;35.53;23.17;;;-3.00;99.90;;;;;;5093573;28;20465;-78
2023/01/30 05:52:58;;;;;;;36.10;23.77;;;-3.00;99.90;;;;;;5092537;28;20528;-77
2023/01/30 05:55:26;;;;;;;37.03;24.77;;;-3.00;99.90;;;;;;5098754;28;20861;-78
2023/01/30 05:57:54;;;;;;;34.27;23.70;;;-3.00;99.90;;;;;;5112546;28;20858;-77
2023/01/30 06:00:24;;;;;;;36.17;23.93;;;-3.00;99.90;;;;;;5107624;28;20464;-75
2023/01/30 06:02:52;;;;;;;36.07;23.73;;;-3.10;99.90;;;;;;5103675;28;20531;-77
2023/01/30 06:05:22;;;;;;;35.73;23.80;;;-3.10;99.90;;;;;;5106419;28;20451;-76
2023/01/30 06:07:50;;;;;;;33.83;23.80;;;-3.10;99.90;;;;;;5105565;28;20507;-76
2023/01/30 06:10:20;;;;;;;32.70;22.67;;;-3.00;99.90;;;;;;5092337;28;20481;-76
2023/01/30 06:12:48;;;;;;;36.03;23.53;;;-3.10;99.90;;;;;;5092068;28;20716;-75
2023/01/30 06:15:16;;;;;;;36.27;23.83;;;-3.00;99.90;;;;;;5091701;28;20437;-76
2023/01/30 06:17:45;;;;;;;32.13;22.73;;;-3.00;99.90;;;;;;5091346;28;20449;-76
2023/01/30 06:20:13;;;;;;;35.33;23.93;;;-3.00;99.90;;;;;;5091269;28;20448;-76
2023/01/30 06:22:41;;;;;;;36.73;24.50;;;-2.90;99.90;;;;;;5091140;28;20992;-76
2023/01/30 06:25:10;;;;;;;32.60;22.67;;;-2.90;99.90;;;;;;5092154;28;20463;-75
2023/01/30 06:27:39;;;;;;;36.27;22.73;;;-2.90;99.90;;;;;;5092092;28;20507;-74
2023/01/30 06:30:10;;;;;;;34.47;23.80;;;-2.90;99.90;;;;;;5091757;28;20449;-75
2023/01/30 06:32:38;;;;;;;34.87;22.93;;;-2.90;99.90;;;;;;5091216;28;20468;-77
2023/01/30 06:35:07;;;;;;;35.30;22.27;;;-2.90;99.90;;;;;;5092635;28;20471;-76
2023/01/30 06:37:36;;;;;;;32.73;22.30;;;-2.90;99.90;;;;;;5092195;28;20452;-78
2023/01/30 06:40:05;;;;;;;32.73;21.83;;;-2.80;99.90;;;;;;5095111;28;20475;-77
2023/01/30 06:42:33;;;;;;;33.30;22.30;;;-2.80;99.90;;;;;;5096013;28;20520;-75
2023/01/30 06:45:02;;;;;;;34.73;22.83;;;-2.70;99.90;;;;;;5096316;28;20983;-77
2023/01/30 06:47:30;;;;;;;29.90;20.60;;;-2.60;99.90;;;;;;5097166;28;20530;-75
2023/01/30 06:49:59;;;;;;;31.80;21.43;;;-2.50;99.90;;;;;;5096155;28;20503;-77
2023/01/30 06:52:27;;;;;;;31.13;22.27;;;-2.40;99.90;;;;;;5099897;28;20455;-77
2023/01/30 06:54:55;;;;;;;35.10;22.60;;;-2.40;99.90;;;;;;5115723;28;20447;-76
2023/01/30 06:57:23;;;;;;;31.47;21.93;;;-2.30;99.90;;;;;;5096377;28;20514;-76
2023/01/30 06:59:52;;;;;;;29.17;21.10;;;-2.20;99.90;;;;;;5096439;28;20490;-75
2023/01/30 07:02:23;;;;;;;29.17;20.83;;;-2.20;99.90;;;;;;5098106;28;20552;-75
2023/01/30 07:04:52;;;;;;;31.50;21.93;;;-2.50;99.90;;;;;;5098181;28;20484;-77
2023/01/30 07:07:21;;;;;;;30.00;20.30;;;-1.90;99.90;;;;;;5095421;28;20488;-77
2023/01/30 07:09:49;;;;;;;28.43;20.67;;;-1.90;99.90;;;;;;5095546;28;20461;-76
2023/01/30 07:12:35;;;;;;;27.80;20.10;;;-1.90;99.90;;;;;;5094888;28;20465;-76
2023/01/30 07:15:05;;;;;;;29.10;21.23;;;-1.80;99.90;;;;;;5095904;28;20494;-74
2023/01/30 07:17:35;;;;;;;26.30;19.90;;;-1.80;99.90;;;;;;5095011;28;20491;-75
2023/01/30 07:20:04;;;;;;;25.83;19.07;;;-1.80;99.90;;;;;;5096875;28;20464;-76
2023/01/30 07:22:33;;;;;;;29.57;20.53;;;-1.70;99.90;;;;;;5094051;28;20490;-76
2023/01/30 07:25:01;;;;;;;27.67;19.43;;;-1.70;99.90;;;;;;5095518;28;20477;-77
2023/01/30 07:27:30;;;;;;;25.47;18.90;;;-1.70;99.90;;;;;;5095361;28;20545;-75
2023/01/30 07:29:59;;;;;;;27.60;19.80;;;-1.60;99.90;;;;;;5094738;28;20475;-73
2023/01/30 07:32:27;;;;;;;26.57;18.63;;;-1.50;99.90;;;;;;5095055;28;20457;-75
2023/01/30 07:34:57;;;;;;;27.00;18.67;;;-1.50;99.90;;;;;;5095042;28;20543;-74
2023/01/30 07:37:26;;;;;;;25.97;18.43;;;-1.40;99.90;;;;;;5095247;28;20514;-77
2023/01/30 07:39:55;;;;;;;24.57;17.27;;;-1.30;99.90;;;;;;5086874;28;20945;-74
2023/01/30 07:42:23;;;;;;;24.73;17.80;;;-1.20;99.90;;;;;;5094832;28;20445;-74
2023/01/30 07:44:52;;;;;;;24.70;16.97;;;-1.20;99.90;;;;;;5094799;28;20485;-76
2023/01/30 07:47:20;;;;;;;24.03;16.60;;;-1.10;99.90;;;;;;5095066;28;20448;-77
2023/01/30 07:49:49;;;;;;;23.97;16.63;;;-1.00;99.90;;;;;;5093982;28;20441;-75
2023/01/30 07:52:19;;;;;;;22.40;16.30;;;-1.00;99.90;;;;;;5106989;28;20455;-75
2023/01/30 07:54:47;;;;;;;23.17;16.73;;;-0.90;99.90;;;;;;5115550;28;20443;-76
2023/01/30 07:57:16;;;;;;;21.17;16.03;;;-0.80;99.90;;;;;;5114060;28;20973;-74
2023/01/30 07:59:44;;;;;;;24.00;16.53;;;-0.80;99.90;;;;;;5094334;28;20453;-74
2023/01/30 08:02:13;;;;;;;21.67;16.07;;;-0.70;99.90;;;;;;5094164;28;20539;-74
2023/01/30 08:04:42;;;;;;;20.53;15.43;;;-0.70;99.90;;;;;;5094698;28;20440;-75
2023/01/30 08:07:11;;;;;;;20.37;15.57;;;-0.60;99.90;;;;;;5094492;28;20479;-75
2023/01/30 08:09:41;;;;;;;20.07;14.50;;;-0.60;99.90;;;;;;5094054;28;20573;-78
2023/01/30 08:12:10;;;;;;;20.33;14.60;;;-0.50;99.90;;;;;;5094098;28;20461;-76
2023/01/30 08:14:38;;;;;;;20.83;14.93;;;-0.40;99.90;;;;;;5094131;28;20444;-75
2023/01/30 08:17:07;;;;;;;20.10;14.00;;;-0.30;99.90;;;;;;5094220;28;20457;-74
2023/01/30 08:19:36;;;;;;;18.73;14.57;;;-0.20;99.90;;;;;;5094405;28;20810;-75
2023/01/30 08:22:04;;;;;;;19.07;13.33;;;-0.20;99.90;;;;;;5092737;28;20558;-74
2023/01/30 08:24:33;;;;;;;18.23;13.67;;;-0.20;99.90;;;;;;5108682;28;20499;-74
2023/01/30 08:27:03;;;;;;;19.37;13.07;;;-0.10;99.90;;;;;;5114275;28;20477;-75
2023/01/30 08:29:32;;;;;;;19.30;12.90;;;0.00;99.90;;;;;;5113343;28;20992;-74
2023/01/30 08:32:01;;;;;;;17.50;13.07;;;0.10;99.90;;;;;;5086451;28;20287;-74
2023/01/30 08:34:29;;;;;;;17.80;13.03;;;0.10;99.90;;;;;;5093907;28;20553;-74
2023/01/30 08:36:58;;;;;;;17.40;12.30;;;0.20;99.90;;;;;;5094031;28;20496;-75
2023/01/30 08:39:26;;;;;;;20.33;12.97;;;0.40;99.90;;;;;;5094468;28;20218;-75
2023/01/30 08:41:55;;;;;;;24.60;15.20;;;0.50;99.90;;;;;;5097574;28;20381;-76
2023/01/30 08:44:25;;;;;;;16.63;11.17;;;0.70;99.90;;;;;;5094484;28;20206;-74
2023/01/30 08:46:54;;;;;;;20.47;13.93;;;0.80;99.90;;;;;;5112724;28;20217;-75
2023/01/30 08:49:22;;;;;;;14.60;10.67;;;0.90;99.90;;;;;;5113966;28;20331;-73
2023/01/30 08:51:51;;;;;;;23.70;15.97;;;1.10;99.90;;;;;;5114069;28;20214;-75
2023/01/30 08:54:19;;;;;;;16.20;11.77;;;1.20;99.90;;;;;;5114814;28;20425;-75
2023/01/30 08:56:48;;;;;;;13.73;10.67;;;1.20;99.90;;;;;;5093278;27;20672;-78
2023/01/30 08:59:16;;;;;;;15.13;10.87;;;1.30;99.90;;;;;;5109168;28;20226;-78
2023/01/30 09:01:46;;;;;;;14.67;9.97;;;1.60;99.90;;;;;;5112813;28;20267;-77
2023/01/30 09:04:15;;;;;;;14.83;10.20;;;1.70;99.90;;;;;;5103405;28;20207;-76
2023/01/30 09:06:46;;;;;;;13.80;10.03;;;1.80;99.90;;;;;;5103587;28;20225;-80
2023/01/30 09:09:16;;;;;;;15.60;9.73;;;2.90;99.90;;;;;;5124594;27;20218;-78
2023/01/30 09:11:46;;;;;;;13.80;10.40;;;4.20;99.90;;;;;;5115077;27;20206;-76
2023/01/30 09:14:18;;;;;;;11.43;9.47;;;5.10;99.90;;;;;;5094756;28;20260;-79
2023/01/30 09:16:54;;;;;;;10.63;9.20;;;6.10;99.90;;;;;;5113203;28;20312;-76
2023/01/30 09:19:23;;;;;;;10.93;9.40;;;6.10;99.90;;;;;;5114948;28;20233;-77
2023/01/30 09:21:56;;;;;;;12.07;8.77;;;6.90;99.90;;;;;;5106532;27;20240;-79
2023/01/30 09:24:28;;;;;;;10.53;8.87;;;7.60;99.90;;;;;;5094391;28;20190;-78
2023/01/30 09:26:59;;;;;;;10.40;8.63;;;8.10;99.90;;;;;;5099081;28;20297;-78
2023/01/30 09:29:28;;;;;;;9.73;8.73;;;8.20;99.90;;;;;;5115316;28;20225;-79
2023/01/30 09:31:58;;;;;;;12.70;7.27;;;7.50;99.90;;;;;;5088375;28;20659;-81
2023/01/30 09:34:27;;;;;;;15.70;9.90;;;8.30;99.90;;;;;;5094560;28;20191;-81
2023/01/30 09:36:56;;;;;;;11.37;9.03;;;7.10;99.90;;;;;;5108182;27;20603;-78
2023/01/30 09:39:25;;;;;;;10.10;9.00;;;5.80;99.90;;;;;;5099224;27;20207;-79
2023/01/30 09:42:28;;;;;;;11.07;9.13;;;4.80;99.90;;;;;;5098350;28;20648;-79
2023/01/30 09:45:26;;;;;;;10.70;8.87;;;4.40;99.90;;;;;;5096474;28;20233;-81
2023/01/30 09:48:02;;;;;;;11.80;8.73;;;4.30;99.90;;;;;;5093730;28;20210;-79
2023/01/30 09:50:50;;;;;;;11.37;9.23;;;3.90;99.90;;;;;;5075666;28;20230;-77
2023/01/30 09:53:27;;;;;;;11.67;8.87;;;3.70;99.90;;;;;;5120459;27;20286;-78
2023/01/30 09:55:59;;;;;;;14.13;9.37;;;3.50;99.90;;;;;;5098786;28;20289;-77
2023/01/30 09:58:37;;;;;;;11.43;9.27;;;3.20;99.90;;;;;;5106768;28;20230;-76
2023/01/30 10:01:15;;;;;;;16.57;9.57;;;3.30;99.90;;;;;;5112605;28;20281;-78
2023/01/30 10:03:58;;;;;;;11.50;8.60;;;3.20;99.90;;;;;;5115502;28;20742;-81
2023/01/30 10:06:27;;;;;;;14.60;9.53;;;3.30;99.90;;;;;;5089687;28;20246;-78
2023/01/30 10:09:07;;;;;;;12.07;8.97;;;3.40;99.90;;;;;;5095829;28;20234;-78
2023/01/30 10:11:54;;;;;;;13.17;9.10;;;4.00;99.90;;;;;;5107506;28;20206;-79
2023/01/30 10:14:39;;;;;;;11.53;9.07;;;5.10;99.90;;;;;;5108932;28;20194;-76
2023/01/30 10:17:23;;;;;;;11.00;9.10;;;6.30;99.90;;;;;;5110299;28;20237;-78
2023/01/30 10:20:07;;;;;;;10.07;8.80;;;6.40;99.90;;;;;;5113390;28;20233;-78
2023/01/30 10:22:44;;;;;;;10.87;9.00;;;5.70;99.90;;;;;;5108139;28;20631;-78
2023/01/30 10:25:22;;;;;;;11.57;9.50;;;5.30;99.90;;;;;;5094599;28;20218;-78
2023/01/30 10:27:56;;;;;;;12.13;9.33;;;5.50;99.90;;;;;;5112298;28;20245;-79
2023/01/30 10:30:25;;;;;;;11.20;9.40;;;5.30;99.90;;;;;;5134571;28;20201;-80
2023/01/30 10:33:01;;;;;;;10.70;8.10;;;5.70;99.90;;;;;;5119394;28;20226;-78
2023/01/30 10:35:36;;;;;;;10.53;8.53;;;5.60;99.90;;;;;;5118658;28;20206;-83
2023/01/30 10:38:12;;;;;;;12.03;9.00;;;5.30;99.90;;;;;;5115252;28;20210;-79
2023/01/30 10:40:44;;;;;;;10.97;8.60;;;5.60;99.90;;;;;;5115209;28;20212;-79
2023/01/30 10:43:20;;;;;;;9.30;7.90;;;5.40;99.90;;;;;;5105734;28;20238;-78
2023/01/30 10:45:57;;;;;;;10.00;8.27;;;5.00;99.90;;;;;;5098302;28;20534;-78
2023/01/30 10:48:56;;;;;;;9.43;7.67;;;4.80;99.90;;;;;;5113300;28;20237;-78
2023/01/30 10:51:42;;;;;;;11.43;8.60;;;5.20;99.90;;;;;;5085941;28;20627;-78
2023/01/30 10:54:14;;;;;;;10.53;8.57;;;4.30;99.90;;;;;;5109401;28;20234;-79
2023/01/30 10:56:53;;;;;;;15.60;8.07;;;4.40;99.90;;;;;;5113652;28;20209;-79
2023/01/30 10:59:24;;;;;;;9.50;7.63;;;4.40;99.90;;;;;;5111214;28;20217;-79
2023/01/30 11:01:59;;;;;;;10.17;7.83;;;4.20;99.90;;;;;;5108829;28;20219;-78
2023/01/30 11:04:34;;;;;;;10.07;7.50;;;4.10;99.90;;;;;;5092315;28;20233;-78
2023/01/30 11:07:06;;;;;;;9.53;7.43;;;4.10;99.90;;;;;;5100660;28;20694;-78
2023/01/30 11:09:42;;;;;;;8.47;6.73;;;4.30;99.90;;;;;;5112432;28;20244;-78
2023/01/30 11:12:11;;;;;;;7.87;6.30;;;5.00;99.90;;;;;;5104257;28;20214;-76
2023/01/30 11:14:57;;;;;;;7.53;6.10;;;5.60;99.90;;;;;;5093146;28;20604;-78
2023/01/30 11:17:32;;;;;;;7.63;5.33;;;5.80;99.90;;;;;;5092451;28;20699;-77
2023/01/30 11:20:06;;;;;;;7.83;5.20;;;5.60;99.90;;;;;;5093071;28;20187;-78
2023/01/30 11:22:37;;;;;;;8.90;6.53;;;5.30;99.90;;;;;;5092013;28;20218;-77
2023/01/30 11:25:13;;;;;;;8.20;5.80;;;5.00;99.90;;;;;;5093691;28;20281;-77
2023/01/30 11:27:44;;;;;;;37.83;19.47;;;4.90;99.90;;;;;;5099270;28;20206;-80
2023/01/30 11:30:14;;;;;;;9.03;6.63;;;4.80;99.90;;;;;;5115866;28;20718;-78
2023/01/30 11:32:46;;;;;;;9.80;6.00;;;4.80;99.90;;;;;;5110593;28;20691;-77
2023/01/30 11:35:26;;;;;;;7.83;5.37;;;4.70;99.90;;;;;;5096651;28;20203;-77
2023/01/30 11:38:12;;;;;;;9.10;5.50;;;4.50;99.90;;;;;;5096254;28;20211;-78
2023/01/30 11:40:41;;;;;;;8.93;5.30;;;4.40;99.90;;;;;;5095842;28;20190;-79
2023/01/30 11:43:13;;;;;;;7.90;5.60;;;4.10;99.90;;;;;;5095188;28;20238;-80
2023/01/30 11:45:44;;;;;;;8.00;6.07;;;4.00;99.90;;;;;;5096159;28;20206;-77
2023/01/30 11:48:18;;;;;;;10.23;6.17;;;4.10;99.90;;;;;;5113589;28;20206;-83
2023/01/30 11:51:03;;;;;;;8.63;6.07;;;4.10;99.90;;;;;;5115860;28;20313;-78
2023/01/30 11:53:38;;;;;;;8.33;6.27;;;3.90;99.90;;;;;;5115895;28;20559;-79
2023/01/30 11:56:12;;;;;;;9.10;5.90;;;3.80;99.90;;;;;;5094986;28;20681;-77
2023/01/30 11:58:45;;;;;;;9.63;6.17;;;3.80;99.90;;;;;;5103957;27;20241;-77
2023/01/30 12:01:15;;;;;;;22.40;12.27;;;3.70;99.90;;;;;;5105095;28;20293;-77
2023/01/30 12:03:48;;;;;;;9.77;6.77;;;3.60;99.90;;;;;;5103653;28;20260;-81
2023/01/30 12:06:24;;;;;;;10.57;6.90;;;3.60;99.90;;;;;;5115866;28;20543;-77
2023/01/30 12:08:54;;;;;;;10.83;7.03;;;3.40;99.90;;;;;;5113716;28;20198;-76
2023/01/30 12:11:30;;;;;;;8.87;6.10;;;3.50;99.90;;;;;;5109012;28;20218;-77
2023/01/30 12:14:11;;;;;;;9.73;6.37;;;3.40;99.90;;;;;;5114570;28;20240;-79
2023/01/30 12:16:53;;;;;;;7.70;6.00;;;3.40;99.90;;;;;;5114086;28;20198;-79
2023/01/30 12:19:34;;;;;;;8.03;5.97;;;3.50;99.90;;;;;;5112386;28;20303;-77
2023/01/30 12:22:10;;;;;;;10.60;5.87;;;3.50;99.90;;;;;;5094223;28;20211;-80
2023/01/30 12:24:46;;;;;;;9.50;6.17;;;3.50;99.90;;;;;;5095379;28;20598;-77
2023/01/30 12:27:21;;;;;;;9.30;6.43;;;3.60;99.90;;;;;;5094718;28;20245;-78
2023/01/30 12:29:59;;;;;;;9.70;6.57;;;3.60;99.90;;;;;;5108813;28;20236;-78
2023/01/30 12:32:30;;;;;;;8.00;6.20;;;3.50;99.90;;;;;;5114468;28;20206;-79
2023/01/30 12:34:59;;;;;;;10.00;6.70;;;3.40;99.90;;;;;;5115757;28;20230;-78
2023/01/30 12:37:55;;;;;;;8.53;6.33;;;3.50;99.90;;;;;;5114747;28;20213;-77
2023/01/30 12:40:36;;;;;;;9.10;5.93;;;3.40;99.90;;;;;;5096961;28;20580;-79
2023/01/30 12:43:30;;;;;;;8.40;5.93;;;3.40;99.90;;;;;;5096340;28;20213;-78
2023/01/30 12:46:09;;;;;;;7.93;5.90;;;3.30;99.90;;;;;;5095141;28;20274;-77
2023/01/30 12:48:59;;;;;;;9.00;5.53;;;3.40;99.90;;;;;;5095814;28;20604;-78
2023/01/30 12:51:59;;;;;;;7.63;5.33;;;3.50;99.90;;;;;;5094670;28;20600;-78
2023/01/30 12:54:43;;;;;;;7.73;5.60;;;3.60;99.90;;;;;;5095039;28;20211;-79
2023/01/30 12:57:24;;;;;;;7.77;5.70;;;3.70;99.90;;;;;;5095754;28;20219;-78
2023/01/30 13:00:06;;;;;;;8.43;6.23;;;3.70;99.90;;;;;;5112135;28;20217;-78
2023/01/30 13:02:55;;;;;;;8.40;6.10;;;3.70;99.90;;;;;;5107264;27;20218;-79
2023/01/30 13:05:35;;;;;;;9.53;5.97;;;3.60;99.90;;;;;;5095715;28;20359;-80
2023/01/30 13:08:18;;;;;;;8.10;6.03;;;3.60;99.90;;;;;;5106875;28;20196;-78
2023/01/30 13:10:56;;;;;;;8.43;6.23;;;3.50;99.90;;;;;;5113681;28;20225;-78